createdAt,value
2023-05-24T00:00:34.030Z,98.84
2023-05-24T00:03:04.857Z,99.78
2023-05-24T00:05:37.760Z,98.58
2023-05-24T00:08:05.963Z,99.01
2023-05-24T00:10:34.043Z,99.16
2023-05-24T00:13:01.948Z,99.27
2023-05-24T00:15:29.895Z,98.39
2023-05-24T00:17:57.888Z,98.61
2023-05-24T00:20:26.088Z,98.37
2023-05-24T00:22:55.454Z,97.71
2023-05-24T00:25:23.434Z,96.89
2023-05-24T00:27:51.376Z,96.84
2023-05-24T00:30:19.500Z,97.10
2023-05-24T00:32:47.466Z,96.84
2023-05-24T00:35:15.510Z,97.39
2023-05-24T00:37:45.360Z,97.35
2023-05-24T00:40:15.045Z,97.08
2023-05-24T00:42:42.960Z,97.05
2023-05-24T00:45:11.749Z,97.48
2023-05-24T00:47:39.814Z,97.75
2023-05-24T00:50:09.677Z,99.14
2023-05-24T00:52:38.085Z,99.09
2023-05-24T00:55:07.246Z,98.93
2023-05-24T00:57:37.798Z,98.76
2023-05-24T01:00:08.020Z,98.48
2023-05-24T01:02:36.371Z,98.63
2023-05-24T01:05:04.592Z,97.44
2023-05-24T01:07:41.518Z,96.13
2023-05-24T01:10:18.029Z,95.58
2023-05-24T01:13:00.935Z,95.06
2023-05-24T01:15:39.308Z,94.54
2023-05-24T01:18:15.982Z,94.11
2023-05-24T01:20:45.451Z,94.66
2023-05-24T01:23:28.024Z,93.81
2023-05-24T01:26:10.078Z,93.27
2023-05-24T01:28:40.893Z,93.37
2023-05-24T01:31:09.184Z,92.29
2023-05-24T01:33:41.381Z,92.19
2023-05-24T01:36:09.617Z,93.40
2023-05-24T01:38:38.103Z,93.35
2023-05-24T01:41:13.538Z,93.38
2023-05-24T01:43:51.678Z,92.84
2023-05-24T01:46:26.947Z,92.71
2023-05-24T01:49:04.451Z,92.83
2023-05-24T01:51:41.453Z,94.09
2023-05-24T01:54:10.517Z,93.78
2023-05-24T01:56:40.467Z,94.07
2023-05-24T01:59:11.004Z,94.90
2023-05-24T02:01:39.714Z,95.86
2023-05-24T02:04:07.732Z,95.21
2023-05-24T02:06:36.048Z,95.55
2023-05-24T02:09:04.085Z,95.59
2023-05-24T02:11:32.007Z,97.13
2023-05-24T02:13:59.978Z,98.86
2023-05-24T02:16:30.832Z,97.50
2023-05-24T02:18:59.110Z,98.94
2023-05-24T02:21:28.931Z,99.75
2023-05-24T02:23:57.188Z,100.00
2023-05-24T02:26:25.181Z,99.26
2023-05-24T02:28:53.234Z,100.00
2023-05-24T02:31:21.832Z,100.00
2023-05-24T02:33:51.202Z,100.00
2023-05-24T02:36:19.134Z,100.00
2023-05-24T02:38:47.115Z,100.00
2023-05-24T02:41:17.972Z,100.00
2023-05-24T02:43:46.062Z,100.00
2023-05-24T02:46:14.450Z,100.00
2023-05-24T02:48:42.608Z,100.00
2023-05-24T02:51:11.888Z,100.00
2023-05-24T02:53:39.892Z,100.00
2023-05-24T02:56:08.759Z,100.00
2023-05-24T02:58:40.534Z,100.00
2023-05-24T03:01:08.826Z,100.00
2023-05-24T03:03:36.954Z,100.00
2023-05-24T03:06:05.238Z,100.00
2023-05-24T03:08:34.804Z,100.00
2023-05-24T03:11:02.867Z,100.00
2023-05-24T03:13:30.919Z,100.00
2023-05-24T03:15:58.897Z,100.00
2023-05-24T03:18:26.823Z,100.00
2023-05-24T03:20:54.788Z,100.00
2023-05-24T03:23:22.783Z,100.00
2023-05-24T03:25:52.085Z,100.00
2023-05-24T03:28:22.355Z,100.00
2023-05-24T03:30:50.524Z,100.00
2023-05-24T03:33:18.468Z,100.00
2023-05-24T03:35:46.462Z,100.00
2023-05-24T03:38:14.470Z,100.00
2023-05-24T03:40:42.724Z,100.00
2023-05-24T03:43:12.281Z,100.00
2023-05-24T03:45:40.412Z,100.00
2023-05-24T03:48:08.681Z,100.00
2023-05-24T03:50:36.710Z,100.00
2023-05-24T03:53:04.638Z,100.00
2023-05-24T03:55:32.685Z,100.00
2023-05-24T03:58:00.645Z,100.00
2023-05-24T04:00:30.117Z,100.00
2023-05-24T04:02:58.228Z,100.00
2023-05-24T04:05:29.826Z,98.99
2023-05-24T04:07:57.894Z,99.38
2023-05-24T04:10:26.032Z,99.24
2023-05-24T04:12:53.940Z,96.33
2023-05-24T04:15:23.112Z,95.76
2023-05-24T04:17:55.209Z,94.30
2023-05-24T04:20:25.833Z,93.41
2023-05-24T04:22:54.025Z,92.18
2023-05-24T04:25:22.130Z,89.35
2023-05-24T04:27:50.421Z,88.86
2023-05-24T04:30:18.699Z,87.72
2023-05-24T04:32:46.877Z,86.63
2023-05-24T04:35:16.886Z,85.73
2023-05-24T04:37:45.194Z,85.67
2023-05-24T04:40:13.918Z,83.59
2023-05-24T04:42:41.886Z,83.59
2023-05-24T04:45:10.762Z,81.21
2023-05-24T04:47:38.797Z,79.58
2023-05-24T04:50:08.296Z,79.71
2023-05-24T04:52:37.863Z,77.36
2023-05-24T04:55:06.515Z,78.15
2023-05-24T04:57:34.653Z,76.89
2023-05-24T05:00:02.656Z,76.08
2023-05-24T05:02:31.208Z,75.34
2023-05-24T05:04:59.199Z,75.01
2023-05-24T05:07:27.246Z,74.55
2023-05-24T05:09:56.983Z,74.25
2023-05-24T05:12:24.976Z,75.60
2023-05-24T05:14:53.376Z,75.95
2023-05-24T05:17:21.815Z,75.02
2023-05-24T05:19:49.796Z,77.30
2023-05-24T05:22:17.880Z,80.23
2023-05-24T05:24:45.843Z,80.86
2023-05-24T05:27:15.188Z,79.20
2023-05-24T05:29:43.143Z,78.82
2023-05-24T05:32:11.390Z,77.92
2023-05-24T05:34:39.315Z,77.49
2023-05-24T05:37:07.460Z,76.76
2023-05-24T05:39:35.418Z,76.13
2023-05-24T05:42:03.366Z,76.13
2023-05-24T05:44:32.741Z,75.07
2023-05-24T05:47:00.652Z,75.06
2023-05-24T05:49:28.621Z,74.10
2023-05-24T05:51:56.569Z,73.23
2023-05-24T05:54:24.526Z,72.87
2023-05-24T05:56:52.461Z,73.64
2023-05-24T05:59:20.641Z,72.81
2023-05-24T06:01:49.951Z,73.69
2023-05-24T06:04:18.262Z,73.58
2023-05-24T06:06:49.634Z,72.78
2023-05-24T06:09:18.011Z,71.18
2023-05-24T06:11:45.987Z,71.31
2023-05-24T06:14:18.248Z,70.24
2023-05-24T06:16:48.183Z,70.45
2023-05-24T06:19:18.371Z,69.30
2023-05-24T06:21:48.083Z,69.03
2023-05-24T06:24:20.500Z,69.62
2023-05-24T06:26:48.821Z,68.42
2023-05-24T06:29:16.942Z,67.42
2023-05-24T06:31:44.996Z,68.92
2023-05-24T06:34:13.109Z,72.72
2023-05-24T06:36:43.141Z,73.91
2023-05-24T06:39:11.424Z,74.26
2023-05-24T06:41:39.472Z,73.78
2023-05-24T06:44:07.887Z,74.19
2023-05-24T06:46:35.936Z,73.83
2023-05-24T06:49:04.543Z,73.43
2023-05-24T06:51:33.823Z,73.19
2023-05-24T06:54:03.390Z,74.65
2023-05-24T06:56:31.513Z,74.73
2023-05-24T06:59:00.784Z,72.91
2023-05-24T07:01:29.334Z,72.02
2023-05-24T07:03:58.035Z,71.37
2023-05-24T07:06:25.997Z,70.46
2023-05-24T07:08:54.032Z,71.81
2023-05-24T07:11:23.609Z,70.31
2023-05-24T07:13:51.585Z,69.61
2023-05-24T07:16:19.565Z,69.12
2023-05-24T07:18:47.568Z,69.67
2023-05-24T07:21:15.675Z,70.19
2023-05-24T07:23:43.703Z,68.78
2023-05-24T07:26:12.802Z,67.50
2023-05-24T07:28:42.095Z,67.66
2023-05-24T07:31:10.652Z,67.76
2023-05-24T07:33:38.915Z,66.75
2023-05-24T07:36:07.680Z,67.00
2023-05-24T07:38:36.152Z,64.51
2023-05-24T07:41:04.763Z,63.63
2023-05-24T07:43:32.957Z,63.57
2023-05-24T07:46:02.963Z,62.96
2023-05-24T07:48:31.007Z,63.35
2023-05-24T07:50:58.956Z,60.00
2023-05-24T07:53:26.919Z,59.26
2023-05-24T07:55:55.210Z,58.22
2023-05-24T07:58:23.290Z,57.15
2023-05-24T08:00:51.288Z,56.50
2023-05-24T08:03:20.775Z,57.46
2023-05-24T08:05:48.836Z,57.29
2023-05-24T08:08:16.774Z,56.07
2023-05-24T08:10:44.802Z,54.39
2023-05-24T08:13:12.997Z,55.03
2023-05-24T08:15:41.314Z,54.43
2023-05-24T08:18:09.672Z,54.79
2023-05-24T08:20:40.917Z,53.43
2023-05-24T08:23:09.071Z,53.52
2023-05-24T08:25:37.048Z,54.01
2023-05-24T08:28:05.069Z,54.42
2023-05-24T08:30:33.295Z,53.73
2023-05-24T08:33:01.375Z,53.39
2023-05-24T08:35:29.393Z,51.94
2023-05-24T08:37:58.703Z,50.92
2023-05-24T08:40:26.781Z,50.89
2023-05-24T08:42:55.084Z,51.24
2023-05-24T08:45:23.751Z,50.50
2023-05-24T08:47:52.279Z,50.48
2023-05-24T08:50:21.507Z,50.18
2023-05-24T08:52:50.280Z,50.21
2023-05-24T08:55:20.200Z,49.60
2023-05-24T08:57:48.963Z,49.95
2023-05-24T09:00:18.178Z,49.76
2023-05-24T09:02:47.565Z,49.97
2023-05-24T09:05:17.128Z,49.81
2023-05-24T09:07:46.778Z,48.74
2023-05-24T09:10:14.975Z,48.87
2023-05-24T09:12:46.755Z,48.61
2023-05-24T09:15:14.752Z,48.26
2023-05-24T09:17:42.901Z,48.38
2023-05-24T09:20:11.948Z,45.93
2023-05-24T09:22:43.197Z,44.45
2023-05-24T09:25:14.157Z,43.93
2023-05-24T09:27:42.488Z,43.67
2023-05-24T09:30:13.110Z,44.32
2023-05-24T09:32:41.647Z,44.49
2023-05-24T09:35:10.902Z,44.06
2023-05-24T09:37:40.510Z,44.14
2023-05-24T09:40:19.454Z,41.79
2023-05-24T09:42:51.536Z,41.07
2023-05-24T09:45:25.765Z,40.93
2023-05-24T09:47:54.140Z,39.65
2023-05-24T09:50:22.816Z,40.72
2023-05-24T09:52:54.302Z,39.74
2023-05-24T09:55:22.749Z,40.79
2023-05-24T09:57:52.794Z,38.14
2023-05-24T10:00:25.484Z,38.52
2023-05-24T10:03:03.686Z,39.10
2023-05-24T10:05:32.227Z,39.66
2023-05-24T10:08:00.949Z,40.12
2023-05-24T10:10:30.349Z,38.61
2023-05-24T10:12:59.081Z,37.75
2023-05-24T10:15:29.528Z,38.25
2023-05-24T10:17:58.532Z,38.58
2023-05-24T10:20:26.892Z,39.50
2023-05-24T10:23:00.372Z,39.30
2023-05-24T10:25:30.629Z,38.12
2023-05-24T10:28:03.476Z,38.17
2023-05-24T10:30:38.678Z,37.35
2023-05-24T10:33:09.542Z,39.09
2023-05-24T10:35:38.416Z,36.88
2023-05-24T10:38:08.549Z,38.03
2023-05-24T10:40:43.771Z,36.99
2023-05-24T10:43:11.941Z,37.90
2023-05-24T10:45:42.191Z,36.50
2023-05-24T10:48:20.220Z,34.88
2023-05-24T10:50:48.308Z,34.84
2023-05-24T10:53:17.641Z,35.58
2023-05-24T10:55:56.458Z,36.46
2023-05-24T10:58:30.754Z,35.67
2023-05-24T11:01:00.178Z,35.54
2023-05-24T11:03:34.000Z,35.87
2023-05-24T11:06:03.022Z,34.67
2023-05-24T11:08:33.311Z,35.71
2023-05-24T11:13:43.337Z,35.95
2023-05-24T11:16:37.130Z,34.62
2023-05-24T11:19:19.809Z,35.33
2023-05-24T11:21:50.127Z,36.11
2023-05-24T11:24:19.034Z,36.06
2023-05-24T11:26:47.415Z,36.48
2023-05-24T11:29:18.408Z,35.61
2023-05-24T11:31:52.568Z,36.49
2023-05-24T11:34:20.981Z,36.67
2023-05-24T11:36:50.159Z,36.17
2023-05-24T11:39:18.283Z,35.50
2023-05-24T11:41:46.251Z,36.07
2023-05-24T11:44:19.126Z,35.65
2023-05-24T11:46:47.592Z,35.88
2023-05-24T11:49:18.082Z,36.15
2023-05-24T11:51:46.139Z,38.22
2023-05-24T11:54:14.378Z,38.50
2023-05-24T11:56:42.768Z,37.87
2023-05-24T11:59:15.814Z,38.35
2023-05-24T12:01:44.305Z,38.31
2023-05-24T12:04:13.237Z,38.01
2023-05-24T12:06:44.469Z,39.00
2023-05-24T12:09:14.480Z,38.40
2023-05-24T12:11:43.620Z,38.04
2023-05-24T12:14:15.466Z,38.91
2023-05-24T12:16:44.040Z,39.09
2023-05-24T12:21:46.687Z,38.26
2023-05-24T12:24:17.402Z,37.29
2023-05-24T12:26:46.429Z,35.98
2023-05-24T12:29:15.190Z,36.83
2023-05-24T12:31:44.641Z,37.04
2023-05-24T12:34:14.004Z,36.77
2023-05-24T12:36:43.582Z,36.97
2023-05-24T12:39:23.052Z,36.41
2023-05-24T12:41:55.356Z,37.45
2023-05-24T12:44:26.439Z,37.51
2023-05-24T12:46:55.727Z,36.11
2023-05-24T12:49:23.960Z,36.38
2023-05-24T12:51:52.691Z,36.76
2023-05-24T12:54:23.410Z,35.87
2023-05-24T12:56:54.170Z,37.05
2023-05-24T12:59:23.867Z,36.65
2023-05-24T13:01:52.499Z,35.66
2023-05-24T13:04:23.153Z,35.35
2023-05-24T13:06:51.272Z,35.86
2023-05-24T13:09:21.572Z,36.56
2023-05-24T13:11:51.148Z,34.42
2023-05-24T13:14:19.853Z,34.79
2023-05-24T13:16:48.595Z,35.55
2023-05-24T13:19:17.155Z,34.94
2023-05-24T13:21:45.419Z,35.61
2023-05-24T13:24:14.727Z,37.08
2023-05-24T13:26:42.754Z,38.44
2023-05-24T13:31:43.375Z,45.30
2023-05-24T13:34:11.808Z,46.54
2023-05-24T13:36:40.434Z,47.18
2023-05-24T13:41:41.535Z,53.01
2023-05-24T13:44:11.249Z,56.16
2023-05-24T13:46:40.256Z,57.25
2023-05-24T13:49:09.460Z,54.85
2023-05-24T13:51:38.127Z,53.46
2023-05-24T13:54:07.691Z,53.20
2023-05-24T13:56:36.683Z,52.46
2023-05-24T13:59:05.746Z,51.50
2023-05-24T14:01:37.079Z,50.75
2023-05-24T14:04:06.558Z,50.66
2023-05-24T14:06:37.529Z,51.02
2023-05-24T14:09:07.593Z,50.88
2023-05-24T14:11:35.640Z,50.09
2023-05-24T14:16:36.747Z,47.95
2023-05-24T14:19:05.742Z,48.26
2023-05-24T14:21:33.878Z,48.26
2023-05-24T14:24:01.946Z,47.91
2023-05-24T14:26:29.914Z,48.61
2023-05-24T14:28:57.880Z,46.72
2023-05-24T14:31:25.951Z,46.12
2023-05-24T14:33:55.392Z,45.23
2023-05-24T14:36:23.282Z,45.10
2023-05-24T14:38:51.826Z,44.41
2023-05-24T14:41:19.808Z,44.18
2023-05-24T14:43:47.855Z,44.17
2023-05-24T14:46:16.005Z,49.96
2023-05-24T14:48:44.124Z,49.91
2023-05-24T14:51:13.402Z,50.04
2023-05-24T14:53:41.365Z,51.62
2023-05-24T14:56:10.202Z,53.52
2023-05-24T14:58:38.269Z,54.11
2023-05-24T15:01:06.897Z,56.49
2023-05-24T15:03:35.261Z,55.27
2023-05-24T15:06:03.696Z,55.00
2023-05-24T15:08:34.210Z,54.50
2023-05-24T15:11:02.276Z,53.67
2023-05-24T15:13:30.303Z,53.07
2023-05-24T15:16:00.608Z,52.56
2023-05-24T15:18:29.134Z,51.45
2023-05-24T15:20:57.304Z,51.60
2023-05-24T15:23:26.230Z,52.60
2023-05-24T15:25:55.706Z,51.64
2023-05-24T15:28:26.031Z,51.65
2023-05-24T15:30:54.622Z,51.28
2023-05-24T15:33:22.734Z,52.52
2023-05-24T15:35:50.953Z,52.00
2023-05-24T15:38:19.016Z,52.59
2023-05-24T15:40:47.076Z,51.76
2023-05-24T15:43:19.579Z,53.14
2023-05-24T15:45:48.293Z,54.58
2023-05-24T15:48:16.364Z,53.90
2023-05-24T15:51:13.856Z,54.95
2023-05-24T15:53:32.573Z,54.89
2023-05-24T15:56:00.593Z,53.68
2023-05-24T15:58:29.910Z,53.63
2023-05-24T16:00:57.855Z,53.54
2023-05-24T16:03:25.950Z,53.81
2023-05-24T16:05:54.109Z,55.94
2023-05-24T16:08:27.667Z,56.45
2023-05-24T16:10:55.910Z,56.55
2023-05-24T16:13:23.997Z,56.18
2023-05-24T16:15:53.258Z,55.93
2023-05-24T16:18:22.951Z,55.70
2023-05-24T16:20:52.024Z,55.93
2023-05-24T16:23:23.057Z,56.06
2023-05-24T16:25:51.437Z,55.92
2023-05-24T16:28:23.917Z,56.43
2023-05-24T16:30:56.065Z,56.48
2023-05-24T16:33:24.738Z,56.10
2023-05-24T16:35:56.432Z,55.64
2023-05-24T16:38:25.615Z,56.01
2023-05-24T16:40:54.150Z,54.13
2023-05-24T16:43:22.695Z,53.72
2023-05-24T16:45:51.360Z,53.29
2023-05-24T16:48:21.989Z,54.87
2023-05-24T16:50:51.730Z,53.34
2023-05-24T16:53:22.935Z,53.27
2023-05-24T16:55:53.821Z,53.05
2023-05-24T16:58:21.875Z,53.19
2023-05-24T17:00:49.919Z,52.07
2023-05-24T17:03:18.147Z,52.62
2023-05-24T17:05:47.625Z,52.92
2023-05-24T17:08:15.560Z,55.09
2023-05-24T17:10:44.015Z,57.60
2023-05-24T17:13:12.167Z,60.07
2023-05-24T17:15:40.115Z,61.35
2023-05-24T17:18:08.120Z,63.15
2023-05-24T17:20:36.070Z,63.29
2023-05-24T17:23:05.427Z,61.80
2023-05-24T17:25:33.480Z,61.12
2023-05-24T17:28:01.530Z,61.01
2023-05-24T17:30:30.451Z,60.56
2023-05-24T17:32:58.504Z,60.41
2023-05-24T17:35:27.218Z,60.36
2023-05-24T17:37:55.209Z,60.21
2023-05-24T17:40:24.577Z,59.54
2023-05-24T17:42:52.469Z,59.80
2023-05-24T17:45:20.504Z,59.98
2023-05-24T17:47:49.752Z,59.86
2023-05-24T17:50:17.772Z,59.78
2023-05-24T17:52:45.656Z,59.34
2023-05-24T17:55:13.660Z,60.03
2023-05-24T17:57:43.020Z,59.84
2023-05-24T18:00:12.456Z,59.57
2023-05-24T18:02:41.503Z,59.79
2023-05-24T18:05:10.283Z,59.21
2023-05-24T18:07:38.480Z,59.82
2023-05-24T18:10:07.810Z,58.87
2023-05-24T18:12:35.743Z,59.06
2023-05-24T18:15:05.945Z,59.76
2023-05-24T18:17:34.173Z,62.54
2023-05-24T18:20:02.323Z,65.00
2023-05-24T18:22:30.323Z,66.18
2023-05-24T18:24:58.633Z,67.04
2023-05-24T18:27:26.885Z,67.77
2023-05-24T18:29:55.219Z,66.57
2023-05-24T18:32:24.692Z,66.17
2023-05-24T18:34:52.666Z,67.57
2023-05-24T18:37:23.144Z,70.00
2023-05-24T18:39:51.117Z,71.38
2023-05-24T18:42:19.148Z,72.89
2023-05-24T18:44:47.110Z,73.52
2023-05-24T18:47:15.104Z,74.88
2023-05-24T18:49:44.407Z,76.08
2023-05-24T18:52:12.423Z,78.73
2023-05-24T18:54:40.423Z,80.54
2023-05-24T18:57:08.490Z,81.08
2023-05-24T18:59:37.544Z,81.61
2023-05-24T19:02:06.248Z,81.99
2023-05-24T19:04:34.270Z,81.00
2023-05-24T19:07:03.633Z,80.87
2023-05-24T19:09:31.602Z,79.89
2023-05-24T19:12:00.267Z,79.72
2023-05-24T19:14:28.646Z,79.88
2023-05-24T19:16:56.793Z,80.18
2023-05-24T19:19:24.736Z,80.96
2023-05-24T19:21:52.933Z,81.71
2023-05-24T19:24:24.089Z,82.32
2023-05-24T19:26:51.992Z,82.43
2023-05-24T19:29:20.263Z,84.31
2023-05-24T19:31:50.788Z,83.83
2023-05-24T19:34:19.882Z,82.95
2023-05-24T19:36:47.904Z,84.47
2023-05-24T19:39:15.893Z,85.19
2023-05-24T19:41:45.354Z,85.49
2023-05-24T19:44:13.274Z,85.24
2023-05-24T19:46:41.445Z,86.27
2023-05-24T19:49:09.533Z,86.17
2023-05-24T19:51:37.540Z,85.41
2023-05-24T19:54:05.700Z,85.41
2023-05-24T19:56:33.615Z,84.88
2023-05-24T19:59:03.241Z,85.03
2023-05-24T20:01:31.775Z,85.81
2023-05-24T20:03:59.853Z,86.21
2023-05-24T20:06:27.839Z,86.24
2023-05-24T20:08:58.856Z,86.26
2023-05-24T20:11:28.158Z,85.24
2023-05-24T20:13:56.976Z,85.29
2023-05-24T20:16:26.411Z,85.15
2023-05-24T20:18:54.430Z,86.02
2023-05-24T20:21:22.452Z,86.46
2023-05-24T20:23:57.696Z,85.75
2023-05-24T20:26:26.209Z,84.71
2023-05-24T20:28:54.174Z,85.18
2023-05-24T20:31:22.142Z,85.72
2023-05-24T20:33:52.999Z,85.66
2023-05-24T20:36:21.033Z,84.75
2023-05-24T20:38:49.147Z,85.38
2023-05-24T20:41:17.376Z,85.43
2023-05-24T20:43:45.580Z,84.99
2023-05-24T20:46:14.572Z,85.24
2023-05-24T20:48:43.426Z,88.42
2023-05-24T20:51:12.718Z,89.14
2023-05-24T20:53:40.841Z,88.03
2023-05-24T20:56:08.905Z,87.93
2023-05-24T20:58:36.861Z,87.19
2023-05-24T21:01:04.804Z,86.18
2023-05-24T21:03:32.799Z,85.19
2023-05-24T21:06:00.849Z,85.74
2023-05-24T21:08:30.184Z,86.26
2023-05-24T21:10:58.195Z,86.20
2023-05-24T21:13:27.217Z,86.27
2023-05-24T21:15:55.187Z,85.81
2023-05-24T21:18:23.240Z,86.63
2023-05-24T21:20:51.322Z,88.02
2023-05-24T21:23:19.325Z,87.95
2023-05-24T21:25:48.882Z,87.27
2023-05-24T21:28:16.826Z,88.13
2023-05-24T21:30:45.194Z,89.28
2023-05-24T21:33:13.200Z,89.70
2023-05-24T21:35:41.408Z,89.17
2023-05-24T21:38:09.460Z,89.09
2023-05-24T21:40:37.359Z,89.34
2023-05-24T21:43:09.652Z,89.14
2023-05-24T21:45:37.651Z,88.97
2023-05-24T21:48:06.151Z,88.87
2023-05-24T21:50:35.179Z,88.98
2023-05-24T21:53:03.619Z,89.47
2023-05-24T21:55:31.742Z,89.56
2023-05-24T21:57:59.662Z,91.51
2023-05-24T22:00:28.988Z,92.03
2023-05-24T22:02:57.128Z,91.31
2023-05-24T22:05:27.646Z,90.80
2023-05-24T22:07:55.928Z,91.50
2023-05-24T22:10:24.215Z,91.67
2023-05-24T22:12:52.124Z,91.68
2023-05-24T22:15:20.149Z,91.50
2023-05-24T22:17:50.428Z,92.22
2023-05-24T22:20:19.333Z,92.51
2023-05-24T22:22:53.287Z,93.94
2023-05-24T22:25:21.739Z,93.96
2023-05-24T22:27:50.025Z,94.09
2023-05-24T22:30:18.383Z,94.19
2023-05-24T22:32:46.667Z,93.73
2023-05-24T22:35:16.449Z,92.69
2023-05-24T22:37:44.402Z,91.57
2023-05-24T22:40:13.524Z,92.29
2023-05-24T22:42:41.573Z,91.20
2023-05-24T22:45:10.397Z,92.15
2023-05-24T22:47:40.029Z,92.50
2023-05-24T22:50:09.524Z,93.27
2023-05-24T22:52:42.449Z,92.89
2023-05-24T22:55:10.921Z,92.00
2023-05-24T22:57:39.039Z,92.27
2023-05-24T23:00:08.503Z,92.79
2023-05-24T23:02:37.344Z,93.78
2023-05-24T23:05:05.866Z,93.40
2023-05-24T23:07:33.857Z,93.67
2023-05-24T23:10:03.449Z,95.27
2023-05-24T23:12:31.412Z,95.90
2023-05-24T23:14:59.551Z,94.49
2023-05-24T23:17:27.555Z,94.23
2023-05-24T23:19:55.752Z,93.51
2023-05-24T23:22:26.337Z,92.80
2023-05-24T23:24:54.369Z,92.00
2023-05-24T23:27:23.927Z,91.75
2023-05-24T23:29:51.876Z,90.60
2023-05-24T23:32:19.834Z,91.24
2023-05-24T23:34:47.833Z,91.47
2023-05-24T23:37:15.850Z,91.12
2023-05-24T23:39:43.793Z,91.34
2023-05-24T23:42:11.810Z,90.85
2023-05-24T23:44:41.184Z,90.94
2023-05-24T23:47:09.588Z,91.53
2023-05-24T23:49:37.633Z,92.88
2023-05-24T23:52:06.711Z,93.37
2023-05-24T23:54:34.636Z,92.26
2023-05-24T23:57:03.995Z,93.40
2023-05-24T23:59:31.914Z,93.79
